Weather at Liwa Air Base

Public forecast

Using degrees Celsius for public forecast. Weather courtesy of forecast.io.

Closest aviation weather report (METAR) to Liwa Air Base

Closest report is Al Bateen Executive Airport, 58.2 nm (107.7 km) NE.

2024/06/21 16:00 (retrieved 1 hour ago)

OMAD 211600Z 35006KT 320V020 7000 NSC 34/30 Q0995 NOSIG

Closest aviation forecast (TAF) to Liwa Air Base

Closest forecast is Al Bateen Executive Airport, 58.2 nm (107.7 km) NE.

2024/06/21 12:00 (retrieved 5 hours ago)

TAF OMAD 211100Z 2112/2218 33012KT 8000 NSC BECMG 2115/2117 04005KT BECMG 2200/2202 14005KT BECMG 2207/2209 34011KT BECMG 2215/2217 04005KT